createdAt,value
2019-05-06T00:01:35.858Z,67.30
2019-05-06T00:04:06.137Z,69.60
2019-05-06T00:06:36.475Z,68.70
2019-05-06T00:09:07.658Z,70.40
2019-05-06T00:11:37.889Z,66.70
2019-05-06T00:14:08.102Z,66.00
2019-05-06T00:16:38.683Z,67.10
2019-05-06T00:19:09.004Z,66.90
2019-05-06T00:21:39.342Z,65.50
2019-05-06T00:24:09.469Z,68.70
2019-05-06T00:26:55.242Z,67.10
2019-05-06T00:29:27.169Z,67.00
2019-05-06T00:31:57.504Z,65.40
2019-05-06T00:34:27.756Z,67.60
2019-05-06T00:36:57.917Z,65.90
2019-05-06T00:39:46.743Z,67.80
2019-05-06T00:42:34.603Z,67.10
2019-05-06T00:45:06.986Z,69.90
2019-05-06T00:47:37.419Z,65.90
2019-05-06T00:50:07.914Z,66.70
2019-05-06T00:52:38.253Z,67.80
2019-05-06T00:55:08.526Z,67.40
2019-05-06T00:57:44.583Z,68.30
2019-05-06T01:00:21.506Z,65.60
2019-05-06T01:02:51.776Z,66.90
2019-05-06T01:05:24.288Z,68.80
2019-05-06T01:07:54.889Z,68.80
2019-05-06T01:10:25.922Z,66.40
2019-05-06T01:13:04.089Z,67.60
2019-05-06T01:15:34.365Z,67.00
2019-05-06T01:18:05.438Z,69.20
2019-05-06T01:20:35.634Z,67.90
2019-05-06T01:23:06.060Z,66.80
2019-05-06T01:25:36.238Z,67.50
2019-05-06T01:28:06.678Z,67.90
2019-05-06T01:30:36.948Z,66.90
2019-05-06T01:33:07.332Z,67.20
2019-05-06T01:35:37.524Z,70.00
2019-05-06T01:38:24.495Z,69.60
2019-05-06T01:41:06.832Z,67.30
2019-05-06T01:43:37.516Z,68.60
2019-05-06T01:46:07.694Z,70.20
2019-05-06T01:48:49.995Z,70.20
2019-05-06T01:51:21.116Z,71.10
2019-05-06T01:53:51.704Z,68.60
2019-05-06T01:56:23.973Z,68.70
2019-05-06T01:58:54.007Z,67.90
2019-05-06T02:01:25.063Z,67.00
2019-05-06T02:03:55.442Z,69.30
2019-05-06T02:06:25.906Z,68.10
2019-05-06T02:08:56.184Z,67.50
2019-05-06T02:11:26.449Z,69.50
2019-05-06T02:13:56.633Z,68.40
2019-05-06T02:16:26.836Z,70.20
2019-05-06T02:18:57.148Z,70.40
2019-05-06T02:21:45.027Z,72.40
2019-05-06T02:24:20.727Z,69.80
2019-05-06T02:26:51.012Z,68.10
2019-05-06T02:29:24.691Z,69.60
2019-05-06T02:32:17.061Z,69.20
2019-05-06T02:34:45.850Z,68.00
2019-05-06T02:37:22.002Z,71.70
2019-05-06T02:39:53.357Z,68.20
2019-05-06T02:42:24.125Z,68.10
2019-05-06T02:44:54.687Z,69.10
2019-05-06T02:47:46.799Z,71.40
2019-05-06T02:50:19.973Z,72.90
2019-05-06T02:52:53.484Z,69.60
2019-05-06T02:55:23.555Z,68.80
2019-05-06T02:57:54.018Z,69.10
2019-05-06T03:00:24.336Z,69.80
2019-05-06T03:02:54.814Z,68.80
2019-05-06T03:05:25.040Z,72.00
2019-05-06T03:07:57.576Z,69.30
2019-05-06T03:10:27.075Z,72.80
2019-05-06T03:12:57.452Z,69.80
2019-05-06T03:15:27.694Z,70.40
2019-05-06T03:17:57.912Z,69.80
2019-05-06T03:20:46.152Z,68.70
2019-05-06T03:23:17.788Z,70.50
2019-05-06T03:25:48.097Z,69.10
2019-05-06T03:28:18.361Z,69.10
2019-05-06T03:30:48.576Z,69.30
2019-05-06T03:33:40.327Z,69.00
2019-05-06T03:36:06.103Z,69.50
2019-05-06T03:38:22.983Z,69.40
2019-05-06T03:40:53.915Z,68.90
2019-05-06T03:43:24.414Z,70.00
2019-05-06T03:46:13.973Z,69.30
2019-05-06T03:48:44.643Z,69.90
2019-05-06T03:51:14.923Z,72.20
2019-05-06T03:53:45.827Z,73.30
2019-05-06T03:56:19.978Z,70.90
2019-05-06T03:58:53.704Z,70.40
2019-05-06T04:01:24.351Z,71.00
2019-05-06T04:03:57.338Z,71.40
2019-05-06T04:06:27.082Z,71.10
2019-05-06T04:08:58.198Z,70.50
2019-05-06T04:11:28.655Z,70.50
2019-05-06T04:14:02.855Z,69.80
2019-05-06T04:17:03.243Z,72.80
2019-05-06T04:19:38.575Z,71.40
2019-05-06T04:22:19.610Z,74.00
2019-05-06T04:24:58.285Z,71.40
2019-05-06T04:27:48.819Z,74.60
2019-05-06T04:30:20.147Z,72.10
2019-05-06T04:32:53.139Z,75.20
2019-05-06T04:35:23.063Z,73.90
2019-05-06T04:37:54.003Z,73.70
2019-05-06T04:40:24.445Z,72.90
2019-05-06T04:42:55.207Z,73.20
2019-05-06T04:45:25.455Z,73.20
2019-05-06T04:47:55.793Z,75.30
2019-05-06T04:50:26.113Z,72.60
2019-05-06T04:53:05.008Z,73.00
2019-05-06T04:55:35.576Z,75.30
2019-05-06T04:58:06.368Z,73.90
2019-05-06T05:00:37.625Z,75.80
2019-05-06T05:03:07.974Z,73.60
2019-05-06T05:05:38.212Z,73.20
2019-05-06T05:08:08.427Z,74.30
2019-05-06T05:10:46.095Z,74.50
2019-05-06T05:13:38.914Z,74.20
2019-05-06T05:16:22.773Z,73.60
2019-05-06T05:18:59.643Z,74.10
2019-05-06T05:21:32.145Z,74.00
2019-05-06T05:24:02.104Z,78.60
2019-05-06T05:26:32.458Z,75.30
2019-05-06T05:29:03.006Z,73.50
2019-05-06T05:31:33.456Z,75.90
2019-05-06T05:34:04.195Z,75.50
2019-05-06T05:36:34.385Z,75.10
2019-05-06T05:39:06.246Z,73.70
2019-05-06T05:41:36.574Z,75.40
2019-05-06T05:44:25.870Z,75.00
2019-05-06T05:46:56.242Z,76.70
2019-05-06T05:49:32.500Z,75.40
2019-05-06T05:52:03.410Z,75.60
2019-05-06T05:54:34.429Z,76.30
2019-05-06T05:57:04.589Z,76.90
2019-05-06T05:59:34.885Z,78.10
2019-05-06T06:02:05.095Z,78.60
2019-05-06T06:04:35.817Z,79.30
2019-05-06T06:07:06.138Z,79.00
2019-05-06T06:09:44.069Z,78.50
2019-05-06T06:12:14.304Z,79.10
2019-05-06T06:14:55.311Z,79.20
2019-05-06T06:17:38.834Z,78.90
2019-05-06T06:20:26.964Z,82.10
2019-05-06T06:23:00.515Z,82.90
2019-05-06T06:25:33.262Z,80.70
2019-05-06T06:28:03.250Z,86.90
2019-05-06T06:30:42.380Z,81.90
2019-05-06T06:33:13.004Z,84.00
2019-05-06T06:35:55.986Z,83.10
2019-05-06T06:38:46.447Z,81.90
2019-05-06T06:41:16.788Z,81.60
2019-05-06T06:43:49.186Z,83.20
2019-05-06T06:46:19.929Z,81.10
2019-05-06T06:48:52.608Z,82.00
2019-05-06T06:51:23.392Z,82.40
2019-05-06T06:53:53.768Z,82.00
2019-05-06T06:56:42.397Z,81.40
2019-05-06T06:59:31.890Z,80.40
2019-05-06T07:02:28.480Z,80.40
2019-05-06T07:05:27.508Z,80.40
2019-05-06T07:07:48.083Z,80.10
2019-05-06T07:10:36.274Z,80.90
2019-05-06T07:13:06.695Z,80.50
2019-05-06T07:15:37.034Z,80.90
2019-05-06T07:18:07.247Z,80.20
2019-05-06T07:20:48.065Z,80.60
2019-05-06T07:23:24.868Z,80.40
2019-05-06T07:25:55.639Z,80.80
2019-05-06T07:28:26.020Z,80.10
2019-05-06T07:30:56.511Z,79.90
2019-05-06T07:33:26.672Z,79.70
2019-05-06T07:35:57.036Z,79.60
2019-05-06T07:38:27.258Z,79.90
2019-05-06T07:41:07.155Z,79.20
2019-05-06T07:43:47.862Z,79.30
2019-05-06T07:46:33.133Z,79.70
2019-05-06T07:49:14.674Z,79.30
2019-05-06T07:51:45.031Z,79.50
2019-05-06T07:54:15.208Z,79.10
2019-05-06T07:56:45.541Z,79.40
2019-05-06T07:59:15.749Z,79.00
2019-05-06T08:01:46.011Z,79.00
2019-05-06T08:04:16.198Z,79.10
2019-05-06T08:06:46.534Z,79.10
2019-05-06T08:09:16.742Z,79.20
2019-05-06T08:11:47.054Z,79.60
2019-05-06T08:14:22.424Z,79.40
2019-05-06T08:17:02.224Z,79.30
2019-05-06T08:19:33.562Z,79.50
2019-05-06T08:22:07.987Z,79.40
2019-05-06T08:24:38.218Z,79.60
2019-05-06T08:27:08.583Z,79.10
2019-05-06T08:29:38.953Z,79.30
2019-05-06T08:32:09.346Z,79.30
2019-05-06T08:34:42.014Z,79.50
2019-05-06T08:37:36.774Z,79.80
2019-05-06T08:40:08.702Z,79.50
2019-05-06T08:42:38.959Z,78.40
2019-05-06T08:45:09.402Z,78.20
2019-05-06T08:47:39.719Z,78.30
2019-05-06T08:50:32.483Z,78.20
2019-05-06T08:53:14.110Z,78.10
2019-05-06T08:55:45.428Z,77.90
2019-05-06T08:58:15.768Z,77.50
2019-05-06T09:01:02.830Z,77.40
2019-05-06T09:03:33.302Z,78.50
2019-05-06T09:06:03.436Z,78.40
2019-05-06T09:08:33.799Z,78.30
2019-05-06T09:11:04.008Z,78.10
2019-05-06T09:13:34.351Z,77.40
2019-05-06T09:16:04.838Z,78.40
2019-05-06T09:18:35.122Z,78.60
2019-05-06T09:21:05.392Z,79.30
2019-05-06T09:23:35.677Z,78.40
2019-05-06T09:26:07.631Z,78.50
2019-05-06T09:28:48.813Z,78.70
2019-05-06T09:31:25.268Z,78.90
2019-05-06T09:34:02.544Z,78.20
2019-05-06T09:36:41.256Z,78.50
2019-05-06T09:39:06.643Z,78.70
2019-05-06T09:41:36.864Z,78.20
2019-05-06T09:44:07.099Z,77.70
2019-05-06T09:46:37.277Z,76.60
2019-05-06T09:49:15.352Z,76.10
2019-05-06T09:51:45.567Z,76.50
2019-05-06T09:54:49.994Z,77.20
2019-05-06T09:57:24.262Z,75.00
2019-05-06T09:59:54.635Z,72.80
2019-05-06T10:02:24.984Z,71.10
2019-05-06T10:04:55.283Z,74.80
2019-05-06T10:07:25.553Z,74.40
2019-05-06T10:09:55.942Z,74.00
2019-05-06T10:12:26.201Z,70.40
2019-05-06T10:14:56.961Z,71.20
2019-05-06T10:17:27.191Z,72.20
2019-05-06T10:19:58.063Z,68.30
2019-05-06T10:22:28.362Z,71.90
2019-05-06T10:24:58.682Z,72.20
2019-05-06T10:27:28.979Z,73.50
2019-05-06T10:30:05.794Z,73.10
2019-05-06T10:33:02.109Z,71.70
2019-05-06T10:35:32.462Z,62.90
2019-05-06T10:38:13.251Z,70.80
2019-05-06T10:41:00.118Z,68.70
2019-05-06T10:43:30.099Z,73.40
2019-05-06T10:46:01.844Z,71.40
2019-05-06T10:48:32.305Z,62.70
2019-05-06T10:51:13.536Z,71.40
2019-05-06T10:53:42.739Z,70.30
2019-05-06T10:56:32.166Z,66.80
2019-05-06T10:59:02.975Z,63.00
2019-05-06T11:01:37.656Z,60.70
2019-05-06T11:04:07.853Z,69.80
2019-05-06T11:06:38.154Z,64.10
2019-05-06T11:09:09.754Z,66.60
2019-05-06T11:11:42.539Z,56.50
2019-05-06T11:14:12.903Z,64.50
2019-05-06T11:16:43.667Z,65.40
2019-05-06T11:19:13.919Z,64.10
2019-05-06T11:21:45.019Z,57.70
2019-05-06T11:24:15.527Z,59.00
2019-05-06T11:26:45.785Z,63.30
2019-05-06T11:29:21.703Z,64.30
2019-05-06T11:32:02.367Z,61.40
2019-05-06T11:35:03.980Z,64.20
2019-05-06T11:37:50.992Z,64.50
2019-05-06T11:40:19.539Z,65.60
2019-05-06T11:42:49.719Z,60.30
2019-05-06T11:45:20.053Z,64.40
2019-05-06T11:47:50.311Z,65.40
2019-05-06T11:50:21.975Z,65.00
2019-05-06T11:52:52.992Z,62.60
2019-05-06T11:55:31.755Z,64.60
2019-05-06T11:57:56.196Z,66.20
2019-05-06T12:00:33.315Z,64.00
2019-05-06T12:03:03.329Z,62.00
2019-05-06T12:05:33.603Z,60.90
2019-05-06T12:08:08.031Z,63.70
2019-05-06T12:10:35.723Z,64.00
2019-05-06T12:13:06.008Z,62.70
2019-05-06T12:15:36.235Z,64.10
2019-05-06T12:18:06.552Z,65.60
2019-05-06T12:20:36.830Z,65.30
2019-05-06T12:23:07.188Z,65.20
2019-05-06T12:25:37.498Z,64.60
2019-05-06T12:28:07.915Z,63.90
2019-05-06T12:30:38.081Z,62.30
2019-05-06T12:33:36.444Z,64.30
2019-05-06T12:36:21.740Z,66.40
2019-05-06T12:39:15.783Z,65.70
2019-05-06T12:42:15.180Z,65.10
2019-05-06T12:44:57.881Z,65.20
2019-05-06T12:47:59.370Z,66.30
2019-05-06T12:50:29.751Z,65.60
2019-05-06T12:53:00.307Z,66.90
2019-05-06T12:55:30.493Z,66.50
2019-05-06T12:58:02.776Z,65.30
2019-05-06T13:00:34.086Z,65.50
2019-05-06T13:03:04.772Z,65.70
2019-05-06T13:05:35.003Z,60.40
2019-05-06T13:08:06.601Z,63.10
2019-05-06T13:10:37.132Z,64.20
2019-05-06T13:13:07.600Z,64.30
2019-05-06T13:15:37.897Z,64.00
2019-05-06T13:18:08.213Z,65.60
2019-05-06T13:20:38.834Z,62.00
2019-05-06T13:23:34.673Z,64.80
2019-05-06T13:26:02.915Z,62.40
2019-05-06T13:28:35.902Z,61.90
2019-05-06T13:31:19.445Z,64.20
2019-05-06T13:33:53.392Z,64.90
2019-05-06T13:36:22.979Z,63.60
2019-05-06T13:39:09.149Z,64.70
2019-05-06T13:41:25.198Z,63.60
2019-05-06T13:44:09.536Z,59.50
2019-05-06T13:46:42.256Z,64.50
2019-05-06T13:49:43.406Z,61.60
2019-05-06T13:52:15.694Z,56.70
2019-05-06T13:54:46.134Z,59.60
2019-05-06T13:57:16.483Z,62.60
2019-05-06T13:59:46.727Z,58.60
2019-05-06T14:02:34.709Z,58.90
2019-05-06T14:05:06.450Z,57.50
2019-05-06T14:07:36.838Z,59.30
2019-05-06T14:10:07.850Z,58.90
2019-05-06T14:12:38.053Z,60.20
2019-05-06T14:15:08.604Z,59.10
2019-05-06T14:17:38.899Z,58.50
2019-05-06T14:20:12.516Z,57.60
2019-05-06T14:22:43.859Z,57.40
2019-05-06T14:25:33.497Z,50.80
2019-05-06T14:28:25.584Z,56.60
2019-05-06T14:31:03.220Z,57.00
2019-05-06T14:33:33.694Z,55.70
2019-05-06T14:36:03.930Z,58.40
2019-05-06T14:38:34.374Z,58.30
2019-05-06T14:41:16.927Z,58.10
2019-05-06T14:43:47.212Z,56.60
2019-05-06T14:46:17.561Z,55.90
2019-05-06T14:48:47.934Z,56.10
2019-05-06T14:51:18.251Z,58.60
2019-05-06T14:53:48.550Z,57.50
2019-05-06T14:56:24.463Z,56.50
2019-05-06T14:59:04.863Z,57.10
2019-05-06T15:01:36.173Z,58.70
2019-05-06T15:04:06.775Z,54.70
2019-05-06T15:06:36.986Z,51.40
2019-05-06T15:09:13.136Z,57.00
2019-05-06T15:11:43.358Z,57.60
2019-05-06T15:14:13.883Z,57.20
2019-05-06T15:16:44.170Z,56.40
2019-05-06T15:19:14.375Z,56.90
2019-05-06T15:21:44.603Z,55.50
2019-05-06T15:24:14.907Z,54.40
2019-05-06T15:26:45.113Z,50.90
2019-05-06T15:29:15.465Z,55.20
2019-05-06T15:32:04.705Z,55.70
2019-05-06T15:34:42.274Z,53.60
2019-05-06T15:37:34.896Z,53.40
2019-05-06T15:40:07.037Z,53.60
2019-05-06T15:42:37.359Z,56.50
2019-05-06T15:45:07.797Z,54.90
2019-05-06T15:47:38.035Z,55.40
2019-05-06T15:50:08.622Z,55.10
2019-05-06T15:52:38.959Z,55.10
2019-05-06T15:55:09.498Z,55.10
2019-05-06T15:57:39.807Z,55.20
2019-05-06T16:00:13.012Z,52.40
2019-05-06T16:02:43.469Z,54.30
2019-05-06T16:05:20.139Z,54.80
2019-05-06T16:07:46.119Z,52.20
2019-05-06T16:10:17.182Z,53.40
2019-05-06T16:12:48.853Z,54.90
2019-05-06T16:15:19.270Z,54.40
2019-05-06T16:17:49.595Z,55.30
2019-05-06T16:20:22.075Z,55.30
2019-05-06T16:22:56.855Z,56.40
2019-05-06T16:25:27.107Z,54.30
2019-05-06T16:27:57.677Z,53.60
2019-05-06T16:30:28.123Z,54.90
2019-05-06T16:32:58.301Z,54.80
2019-05-06T16:35:28.563Z,52.40
2019-05-06T16:37:58.848Z,54.40
2019-05-06T16:40:29.257Z,53.40
2019-05-06T16:43:01.919Z,54.60
2019-05-06T16:45:31.478Z,55.20
2019-05-06T16:48:03.626Z,55.50
2019-05-06T16:50:34.228Z,54.10
2019-05-06T16:53:04.419Z,55.20
2019-05-06T16:55:56.878Z,55.00
2019-05-06T16:58:32.168Z,55.30
2019-05-06T17:01:03.257Z,55.40
2019-05-06T17:03:40.167Z,55.10
2019-05-06T17:06:23.186Z,56.10
2019-05-06T17:08:53.733Z,56.10
2019-05-06T17:11:30.450Z,55.70
2019-05-06T17:13:55.772Z,53.90
2019-05-06T17:16:39.011Z,56.30
2019-05-06T17:19:09.306Z,56.30
2019-05-06T17:21:39.480Z,56.10
2019-05-06T17:24:09.925Z,56.10
2019-05-06T17:26:42.414Z,56.10
2019-05-06T17:29:22.666Z,56.00
2019-05-06T17:32:02.530Z,55.90
2019-05-06T17:34:35.819Z,55.20
2019-05-06T17:37:12.549Z,54.90
2019-05-06T17:39:42.979Z,56.20
2019-05-06T17:42:14.120Z,56.70
2019-05-06T17:44:44.549Z,56.10
2019-05-06T17:47:25.854Z,56.40
2019-05-06T17:49:56.242Z,55.60
2019-05-06T17:52:26.606Z,56.60
2019-05-06T17:54:56.921Z,56.40
2019-05-06T17:57:27.238Z,56.30
2019-05-06T17:59:57.533Z,56.00
2019-05-06T18:02:27.822Z,54.60
2019-05-06T18:04:58.166Z,56.40
2019-05-06T18:07:28.602Z,55.30
2019-05-06T18:09:58.933Z,55.10
2019-05-06T18:12:29.212Z,56.50
2019-05-06T18:14:59.718Z,55.60
2019-05-06T18:17:29.945Z,56.30
2019-05-06T18:20:00.300Z,55.60
2019-05-06T18:22:32.732Z,55.40
2019-05-06T18:25:02.551Z,56.10
2019-05-06T18:27:32.842Z,56.50
2019-05-06T18:30:14.990Z,56.30
2019-05-06T18:32:35.035Z,56.10
2019-05-06T18:35:05.815Z,55.70
2019-05-06T18:37:36.037Z,56.60
2019-05-06T18:40:06.329Z,56.40
2019-05-06T18:42:36.766Z,56.70
2019-05-06T18:45:12.238Z,56.70
2019-05-06T18:47:42.715Z,56.30
2019-05-06T18:50:13.237Z,56.40
2019-05-06T18:52:43.545Z,56.20
2019-05-06T18:55:13.905Z,56.40
2019-05-06T18:57:44.340Z,55.60
2019-05-06T19:00:15.977Z,56.60
2019-05-06T19:02:46.356Z,56.60
2019-05-06T19:05:27.648Z,56.40
2019-05-06T19:07:58.018Z,55.80
2019-05-06T19:10:29.370Z,56.10
2019-05-06T19:13:01.818Z,56.40
2019-05-06T19:15:33.071Z,56.50
2019-05-06T19:18:03.481Z,56.40
2019-05-06T19:20:33.986Z,56.60
2019-05-06T19:23:04.394Z,56.80
2019-05-06T19:25:34.811Z,57.50
2019-05-06T19:28:05.124Z,57.50
2019-05-06T19:30:35.366Z,57.70
2019-05-06T19:33:07.011Z,58.20
2019-05-06T19:35:37.654Z,57.80
2019-05-06T19:38:07.979Z,58.10
2019-05-06T19:40:38.350Z,58.10
2019-05-06T19:43:08.764Z,58.50
2019-05-06T19:45:38.930Z,58.30
2019-05-06T19:48:09.112Z,58.30
2019-05-06T19:50:39.339Z,58.40
2019-05-06T19:53:11.710Z,58.70
2019-05-06T19:55:43.889Z,58.70
2019-05-06T19:58:13.603Z,58.80
2019-05-06T20:00:43.922Z,59.30
2019-05-06T20:03:14.306Z,59.20
2019-05-06T20:06:09.350Z,58.80
2019-05-06T20:08:48.250Z,59.00
2019-05-06T20:11:27.525Z,58.80
2019-05-06T20:13:57.971Z,59.50
2019-05-06T20:16:28.240Z,60.10
2019-05-06T20:18:58.432Z,59.90
2019-05-06T20:21:28.787Z,61.00
2019-05-06T20:23:59.027Z,59.90
2019-05-06T20:26:29.374Z,60.60
2019-05-06T20:29:02.045Z,61.00
2019-05-06T20:31:32.227Z,60.50
2019-05-06T20:34:02.517Z,60.10
2019-05-06T20:36:33.283Z,59.50
2019-05-06T20:39:05.387Z,60.00
2019-05-06T20:41:35.769Z,61.70
2019-05-06T20:44:06.323Z,60.50
2019-05-06T20:46:36.736Z,60.70
2019-05-06T20:49:07.010Z,62.00
2019-05-06T20:51:37.328Z,60.60
2019-05-06T20:54:07.711Z,62.10
2019-05-06T20:56:38.064Z,60.70
2019-05-06T20:59:08.454Z,61.60
2019-05-06T21:01:39.747Z,61.60
2019-05-06T21:04:10.131Z,64.10
2019-05-06T21:06:42.426Z,63.40
2019-05-06T21:09:12.552Z,62.90
2019-05-06T21:11:43.090Z,64.00
2019-05-06T21:14:13.402Z,61.80
2019-05-06T21:16:43.787Z,64.40
2019-05-06T21:19:14.102Z,61.10
2019-05-06T21:21:44.359Z,60.80
2019-05-06T21:24:14.594Z,62.70
2019-05-06T21:26:46.444Z,62.80
2019-05-06T21:29:17.029Z,63.20
2019-05-06T21:31:47.323Z,63.90
2019-05-06T21:34:17.601Z,65.30
2019-05-06T21:36:47.925Z,63.20
2019-05-06T21:39:18.251Z,63.70
2019-05-06T21:41:48.567Z,64.20
2019-05-06T21:44:18.861Z,68.40
2019-05-06T21:46:49.075Z,63.40
2019-05-06T21:49:19.275Z,65.00
2019-05-06T21:51:49.604Z,63.20
2019-05-06T21:54:23.233Z,66.30
2019-05-06T21:56:53.661Z,63.30
2019-05-06T21:59:24.082Z,62.80
2019-05-06T22:01:54.363Z,64.20
2019-05-06T22:04:24.727Z,64.00
2019-05-06T22:06:54.945Z,63.70
2019-05-06T22:09:25.203Z,64.10
2019-05-06T22:11:55.762Z,63.40
2019-05-06T22:14:26.039Z,64.00
2019-05-06T22:16:56.260Z,64.60
2019-05-06T22:19:26.559Z,66.10
2019-05-06T22:22:03.385Z,64.50
2019-05-06T22:24:58.870Z,68.10
2019-05-06T22:27:32.041Z,65.00
2019-05-06T22:30:03.195Z,69.80
2019-05-06T22:32:45.372Z,68.10
2019-05-06T22:35:17.554Z,66.80
2019-05-06T22:37:47.980Z,66.20
2019-05-06T22:40:18.207Z,65.10
2019-05-06T22:42:48.564Z,65.00
2019-05-06T22:45:18.867Z,67.60
2019-05-06T22:47:49.271Z,67.70
2019-05-06T22:50:19.644Z,65.20
2019-05-06T22:52:50.026Z,67.10
2019-05-06T22:55:22.102Z,65.50
2019-05-06T22:57:52.912Z,65.50
2019-05-06T23:00:25.500Z,65.00
2019-05-06T23:03:02.283Z,67.50
2019-05-06T23:05:32.649Z,68.60
2019-05-06T23:08:02.917Z,66.80
2019-05-06T23:10:33.824Z,64.80
2019-05-06T23:13:04.180Z,67.20
2019-05-06T23:15:34.394Z,65.60
2019-05-06T23:18:04.594Z,64.50
2019-05-06T23:20:34.792Z,64.30
2019-05-06T23:23:05.090Z,65.00
2019-05-06T23:25:35.302Z,67.90
2019-05-06T23:28:05.525Z,66.80
2019-05-06T23:30:35.960Z,68.40
2019-05-06T23:33:06.130Z,68.70
2019-05-06T23:35:36.494Z,65.60
2019-05-06T23:38:43.109Z,69.20
2019-05-06T23:41:49.219Z,65.30
2019-05-06T23:44:55.288Z,66.30
2019-05-06T23:48:02.431Z,66.40
2019-05-06T23:51:08.948Z,65.20
2019-05-06T23:54:15.186Z,65.40
2019-05-06T23:56:44.754Z,65.70
2019-05-06T23:59:16.098Z,67.80
